sensor_id;sensor_type;location;lat;lon;timestamp;temperature;humidity
12025;DHT22;6073;53.230;10.444;2023-01-06T00:01:46;6.10;99.90
12025;DHT22;6073;53.230;10.444;2023-01-06T00:04:20;6.10;99.90
12025;DHT22;6073;53.230;10.444;2023-01-06T00:06:46;6.10;99.90
12025;DHT22;6073;53.230;10.444;2023-01-06T00:09:18;6.10;99.90
12025;DHT22;6073;53.230;10.444;2023-01-06T00:11:43;6.10;99.90
12025;DHT22;6073;53.230;10.444;2023-01-06T00:14:12;6.10;99.90
12025;DHT22;6073;53.230;10.444;2023-01-06T00:16:47;6.10;99.90
12025;DHT22;6073;53.230;10.444;2023-01-06T00:19:15;6.10;99.90
12025;DHT22;6073;53.230;10.444;2023-01-06T00:21:41;6.20;99.90
12025;DHT22;6073;53.230;10.444;2023-01-06T00:24:09;6.20;99.90
12025;DHT22;6073;53.230;10.444;2023-01-06T00:26:36;6.30;99.90
12025;DHT22;6073;53.230;10.444;2023-01-06T00:29:02;6.30;99.90
12025;DHT22;6073;53.230;10.444;2023-01-06T00:31:28;6.30;99.90
12025;DHT22;6073;53.230;10.444;2023-01-06T00:33:57;6.40;99.90
12025;DHT22;6073;53.230;10.444;2023-01-06T00:36:23;6.40;99.90
12025;DHT22;6073;53.230;10.444;2023-01-06T00:38:49;6.40;99.90
12025;DHT22;6073;53.230;10.444;2023-01-06T00:41:15;6.30;99.90
12025;DHT22;6073;53.230;10.444;2023-01-06T00:44:00;6.30;99.90
12025;DHT22;6073;53.230;10.444;2023-01-06T00:46:30;6.30;99.90
12025;DHT22;6073;53.230;10.444;2023-01-06T00:49:00;6.40;99.90
12025;DHT22;6073;53.230;10.444;2023-01-06T00:51:26;6.40;99.90
12025;DHT22;6073;53.230;10.444;2023-01-06T00:53:53;6.30;99.90
12025;DHT22;6073;53.230;10.444;2023-01-06T00:56:19;6.40;99.90
12025;DHT22;6073;53.230;10.444;2023-01-06T00:58:45;6.40;99.90
12025;DHT22;6073;53.230;10.444;2023-01-06T01:01:11;6.40;99.90
12025;DHT22;6073;53.230;10.444;2023-01-06T01:03:37;6.40;99.90
12025;DHT22;6073;53.230;10.444;2023-01-06T01:06:06;6.40;99.90
12025;DHT22;6073;53.230;10.444;2023-01-06T01:08:32;6.50;99.90
12025;DHT22;6073;53.230;10.444;2023-01-06T01:11:05;6.50;99.90
12025;DHT22;6073;53.230;10.444;2023-01-06T01:13:32;6.50;99.90
12025;DHT22;6073;53.230;10.444;2023-01-06T01:16:03;6.50;99.90
12025;DHT22;6073;53.230;10.444;2023-01-06T01:18:28;6.50;99.90
12025;DHT22;6073;53.230;10.444;2023-01-06T01:20:54;6.50;99.90
12025;DHT22;6073;53.230;10.444;2023-01-06T01:23:20;6.50;99.90
12025;DHT22;6073;53.230;10.444;2023-01-06T01:25:45;6.60;99.90
12025;DHT22;6073;53.230;10.444;2023-01-06T01:28:11;6.60;99.90
12025;DHT22;6073;53.230;10.444;2023-01-06T01:30:36;6.60;99.90
12025;DHT22;6073;53.230;10.444;2023-01-06T01:33:02;6.70;99.90
12025;DHT22;6073;53.230;10.444;2023-01-06T01:35:27;6.60;99.90
12025;DHT22;6073;53.230;10.444;2023-01-06T01:37:53;6.70;99.90
12025;DHT22;6073;53.230;10.444;2023-01-06T01:40:18;6.70;99.90
12025;DHT22;6073;53.230;10.444;2023-01-06T01:42:44;6.70;99.90
12025;DHT22;6073;53.230;10.444;2023-01-06T01:45:26;6.80;99.90
12025;DHT22;6073;53.230;10.444;2023-01-06T01:47:56;6.80;99.90
12025;DHT22;6073;53.230;10.444;2023-01-06T01:50:46;6.80;99.90
12025;DHT22;6073;53.230;10.444;2023-01-06T01:53:23;6.80;99.90
12025;DHT22;6073;53.230;10.444;2023-01-06T01:55:51;6.80;99.90
12025;DHT22;6073;53.230;10.444;2023-01-06T01:58:48;6.80;99.90
12025;DHT22;6073;53.230;10.444;2023-01-06T02:01:15;6.80;99.90
12025;DHT22;6073;53.230;10.444;2023-01-06T02:03:41;6.90;99.90
12025;DHT22;6073;53.230;10.444;2023-01-06T02:06:12;7.00;99.90
12025;DHT22;6073;53.230;10.444;2023-01-06T02:08:43;7.00;99.90
12025;DHT22;6073;53.230;10.444;2023-01-06T02:11:10;7.00;99.90
12025;DHT22;6073;53.230;10.444;2023-01-06T02:13:39;7.00;99.90
12025;DHT22;6073;53.230;10.444;2023-01-06T02:19:06;7.10;99.90
12025;DHT22;6073;53.230;10.444;2023-01-06T02:21:54;7.10;99.90
12025;DHT22;6073;53.230;10.444;2023-01-06T02:27:38;7.10;99.90
12025;DHT22;6073;53.230;10.444;2023-01-06T02:38:37;7.20;99.90
12025;DHT22;6073;53.230;10.444;2023-01-06T02:47:11;7.40;99.90
12025;DHT22;6073;53.230;10.444;2023-01-06T02:55:38;7.40;99.90
12025;DHT22;6073;53.230;10.444;2023-01-06T03:01:08;7.50;99.90
12025;DHT22;6073;53.230;10.444;2023-01-06T03:03:38;7.50;99.90
12025;DHT22;6073;53.230;10.444;2023-01-06T03:06:09;7.60;99.90
12025;DHT22;6073;53.230;10.444;2023-01-06T03:08:36;7.50;99.90
12025;DHT22;6073;53.230;10.444;2023-01-06T03:11:03;7.50;99.90
12025;DHT22;6073;53.230;10.444;2023-01-06T03:13:48;7.50;99.90
12025;DHT22;6073;53.230;10.444;2023-01-06T03:16:15;7.50;99.90
12025;DHT22;6073;53.230;10.444;2023-01-06T03:18:42;7.60;99.90
12025;DHT22;6073;53.230;10.444;2023-01-06T03:21:13;7.50;99.90
12025;DHT22;6073;53.230;10.444;2023-01-06T03:23:40;7.60;99.90
12025;DHT22;6073;53.230;10.444;2023-01-06T03:26:07;7.60;99.90
12025;DHT22;6073;53.230;10.444;2023-01-06T03:28:33;7.60;99.90
12025;DHT22;6073;53.230;10.444;2023-01-06T03:36:57;7.70;99.90
12025;DHT22;6073;53.230;10.444;2023-01-06T03:42:37;7.60;99.90
12025;DHT22;6073;53.230;10.444;2023-01-06T03:48:10;7.70;99.90
12025;DHT22;6073;53.230;10.444;2023-01-06T03:51:00;7.70;99.90
12025;DHT22;6073;53.230;10.444;2023-01-06T03:56:32;7.90;99.90
12025;DHT22;6073;53.230;10.444;2023-01-06T03:59:02;7.80;99.90
12025;DHT22;6073;53.230;10.444;2023-01-06T04:01:29;7.80;99.90
12025;DHT22;6073;53.230;10.444;2023-01-06T04:03:55;7.90;99.90
12025;DHT22;6073;53.230;10.444;2023-01-06T04:06:21;7.80;99.90
12025;DHT22;6073;53.230;10.444;2023-01-06T04:08:47;7.80;99.90
12025;DHT22;6073;53.230;10.444;2023-01-06T04:11:13;7.80;99.90
12025;DHT22;6073;53.230;10.444;2023-01-06T04:13:57;7.80;99.90
12025;DHT22;6073;53.230;10.444;2023-01-06T04:16:22;7.80;99.90
12025;DHT22;6073;53.230;10.444;2023-01-06T04:18:48;7.80;99.90
12025;DHT22;6073;53.230;10.444;2023-01-06T04:21:13;7.90;99.90
12025;DHT22;6073;53.230;10.444;2023-01-06T04:23:39;7.90;99.90
12025;DHT22;6073;53.230;10.444;2023-01-06T04:26:05;8.00;99.90
12025;DHT22;6073;53.230;10.444;2023-01-06T04:28:30;8.00;99.90
12025;DHT22;6073;53.230;10.444;2023-01-06T04:31:00;8.00;99.90
12025;DHT22;6073;53.230;10.444;2023-01-06T04:33:26;8.00;99.90
12025;DHT22;6073;53.230;10.444;2023-01-06T04:35:51;8.00;99.90
12025;DHT22;6073;53.230;10.444;2023-01-06T04:38:17;8.10;99.90
12025;DHT22;6073;53.230;10.444;2023-01-06T04:40:43;8.10;99.90
12025;DHT22;6073;53.230;10.444;2023-01-06T04:43:08;8.20;99.90
12025;DHT22;6073;53.230;10.444;2023-01-06T04:45:41;8.20;99.90
12025;DHT22;6073;53.230;10.444;2023-01-06T04:48:07;8.20;99.90
12025;DHT22;6073;53.230;10.444;2023-01-06T04:50:33;8.20;99.90
12025;DHT22;6073;53.230;10.444;2023-01-06T04:52:58;8.30;99.90
12025;DHT22;6073;53.230;10.444;2023-01-06T04:55:24;8.30;99.90
12025;DHT22;6073;53.230;10.444;2023-01-06T04:57:50;8.40;99.90
12025;DHT22;6073;53.230;10.444;2023-01-06T05:00:16;8.40;99.90
12025;DHT22;6073;53.230;10.444;2023-01-06T05:02:43;8.40;99.90
12025;DHT22;6073;53.230;10.444;2023-01-06T05:05:09;8.40;99.90
12025;DHT22;6073;53.230;10.444;2023-01-06T05:07:34;8.40;99.90
12025;DHT22;6073;53.230;10.444;2023-01-06T05:10:00;8.40;99.90
12025;DHT22;6073;53.230;10.444;2023-01-06T05:12:25;8.50;99.90
12025;DHT22;6073;53.230;10.444;2023-01-06T05:14:51;8.40;99.90
12025;DHT22;6073;53.230;10.444;2023-01-06T05:17:16;8.50;99.90
12025;DHT22;6073;53.230;10.444;2023-01-06T05:19:42;8.50;99.90
12025;DHT22;6073;53.230;10.444;2023-01-06T05:22:09;8.50;99.90
12025;DHT22;6073;53.230;10.444;2023-01-06T05:24:35;8.50;99.90
12025;DHT22;6073;53.230;10.444;2023-01-06T05:27:01;8.50;99.90
12025;DHT22;6073;53.230;10.444;2023-01-06T05:29:26;8.50;99.90
12025;DHT22;6073;53.230;10.444;2023-01-06T05:31:52;8.60;99.90
12025;DHT22;6073;53.230;10.444;2023-01-06T05:34:18;8.60;99.90
12025;DHT22;6073;53.230;10.444;2023-01-06T05:36:43;8.60;99.90
12025;DHT22;6073;53.230;10.444;2023-01-06T05:39:09;8.60;99.90
12025;DHT22;6073;53.230;10.444;2023-01-06T05:41:34;8.60;99.90
12025;DHT22;6073;53.230;10.444;2023-01-06T05:44:00;8.60;99.90
12025;DHT22;6073;53.230;10.444;2023-01-06T05:46:26;8.70;99.90
12025;DHT22;6073;53.230;10.444;2023-01-06T05:48:51;8.70;99.90
12025;DHT22;6073;53.230;10.444;2023-01-06T05:51:17;8.70;99.90
12025;DHT22;6073;53.230;10.444;2023-01-06T05:53:45;8.70;99.90
12025;DHT22;6073;53.230;10.444;2023-01-06T05:56:13;8.70;99.90
12025;DHT22;6073;53.230;10.444;2023-01-06T05:58:39;8.80;99.90
12025;DHT22;6073;53.230;10.444;2023-01-06T06:01:35;8.80;99.90
12025;DHT22;6073;53.230;10.444;2023-01-06T06:04:00;8.90;99.90
12025;DHT22;6073;53.230;10.444;2023-01-06T06:06:27;8.90;99.90
12025;DHT22;6073;53.230;10.444;2023-01-06T06:08:53;8.90;99.90
12025;DHT22;6073;53.230;10.444;2023-01-06T06:11:19;8.90;99.90
12025;DHT22;6073;53.230;10.444;2023-01-06T06:13:53;8.90;99.90
12025;DHT22;6073;53.230;10.444;2023-01-06T06:16:21;8.80;99.90
12025;DHT22;6073;53.230;10.444;2023-01-06T06:18:49;8.90;99.90
12025;DHT22;6073;53.230;10.444;2023-01-06T06:21:16;8.90;99.90
12025;DHT22;6073;53.230;10.444;2023-01-06T06:23:42;8.90;99.90
12025;DHT22;6073;53.230;10.444;2023-01-06T06:26:09;8.90;99.90
12025;DHT22;6073;53.230;10.444;2023-01-06T06:28:36;8.90;99.90
12025;DHT22;6073;53.230;10.444;2023-01-06T06:31:07;8.90;99.90
12025;DHT22;6073;53.230;10.444;2023-01-06T06:33:33;8.90;99.90
12025;DHT22;6073;53.230;10.444;2023-01-06T06:35:59;8.90;99.90
12025;DHT22;6073;53.230;10.444;2023-01-06T06:38:25;8.90;99.90
12025;DHT22;6073;53.230;10.444;2023-01-06T06:40:51;8.90;99.90
12025;DHT22;6073;53.230;10.444;2023-01-06T06:43:17;8.90;99.90
12025;DHT22;6073;53.230;10.444;2023-01-06T06:45:47;8.90;99.90
12025;DHT22;6073;53.230;10.444;2023-01-06T06:48:13;8.90;99.90
12025;DHT22;6073;53.230;10.444;2023-01-06T06:50:38;8.90;99.90
12025;DHT22;6073;53.230;10.444;2023-01-06T06:53:04;8.90;99.90
12025;DHT22;6073;53.230;10.444;2023-01-06T06:55:30;8.90;99.90
12025;DHT22;6073;53.230;10.444;2023-01-06T06:57:56;8.90;99.90
12025;DHT22;6073;53.230;10.444;2023-01-06T07:00:22;9.00;99.90
12025;DHT22;6073;53.230;10.444;2023-01-06T07:02:48;9.00;99.90
12025;DHT22;6073;53.230;10.444;2023-01-06T07:05:17;9.00;99.90
12025;DHT22;6073;53.230;10.444;2023-01-06T07:07:43;9.00;99.90
12025;DHT22;6073;53.230;10.444;2023-01-06T07:10:14;8.90;99.90
12025;DHT22;6073;53.230;10.444;2023-01-06T07:12:40;8.90;99.90
12025;DHT22;6073;53.230;10.444;2023-01-06T07:15:06;8.90;99.90
12025;DHT22;6073;53.230;10.444;2023-01-06T07:17:32;8.90;99.90
12025;DHT22;6073;53.230;10.444;2023-01-06T07:19:57;9.00;99.90
12025;DHT22;6073;53.230;10.444;2023-01-06T07:22:23;9.00;99.90
12025;DHT22;6073;53.230;10.444;2023-01-06T07:24:48;8.90;99.90
12025;DHT22;6073;53.230;10.444;2023-01-06T07:27:14;8.90;99.90
12025;DHT22;6073;53.230;10.444;2023-01-06T07:29:39;8.90;99.90
12025;DHT22;6073;53.230;10.444;2023-01-06T07:32:05;8.90;99.90
12025;DHT22;6073;53.230;10.444;2023-01-06T07:34:31;9.00;99.90
12025;DHT22;6073;53.230;10.444;2023-01-06T07:36:56;9.00;99.90
12025;DHT22;6073;53.230;10.444;2023-01-06T07:39:22;9.00;99.90
12025;DHT22;6073;53.230;10.444;2023-01-06T07:41:48;9.00;99.90
12025;DHT22;6073;53.230;10.444;2023-01-06T07:44:13;9.10;99.90
12025;DHT22;6073;53.230;10.444;2023-01-06T07:46:39;9.00;99.90
12025;DHT22;6073;53.230;10.444;2023-01-06T07:49:04;9.00;99.90
12025;DHT22;6073;53.230;10.444;2023-01-06T07:51:30;9.00;99.90
12025;DHT22;6073;53.230;10.444;2023-01-06T07:53:55;8.90;99.90
12025;DHT22;6073;53.230;10.444;2023-01-06T07:56:21;8.90;99.90
12025;DHT22;6073;53.230;10.444;2023-01-06T07:58:48;9.00;99.90
12025;DHT22;6073;53.230;10.444;2023-01-06T08:01:14;9.00;99.90
12025;DHT22;6073;53.230;10.444;2023-01-06T08:03:39;9.10;99.90
12025;DHT22;6073;53.230;10.444;2023-01-06T08:06:07;9.10;99.90
12025;DHT22;6073;53.230;10.444;2023-01-06T08:08:38;9.00;99.90
12025;DHT22;6073;53.230;10.444;2023-01-06T08:11:06;9.00;99.90
12025;DHT22;6073;53.230;10.444;2023-01-06T08:13:33;9.00;99.90
12025;DHT22;6073;53.230;10.444;2023-01-06T08:15:59;9.10;99.90
12025;DHT22;6073;53.230;10.444;2023-01-06T08:18:24;9.10;99.90
12025;DHT22;6073;53.230;10.444;2023-01-06T08:20:50;9.10;99.90
12025;DHT22;6073;53.230;10.444;2023-01-06T08:23:16;9.10;99.90
12025;DHT22;6073;53.230;10.444;2023-01-06T08:25:41;9.10;99.90
12025;DHT22;6073;53.230;10.444;2023-01-06T08:28:07;9.00;99.90
12025;DHT22;6073;53.230;10.444;2023-01-06T08:30:32;9.00;99.90
12025;DHT22;6073;53.230;10.444;2023-01-06T08:33:04;9.00;99.90
12025;DHT22;6073;53.230;10.444;2023-01-06T08:35:29;9.10;99.90
12025;DHT22;6073;53.230;10.444;2023-01-06T08:37:55;9.10;99.90
12025;DHT22;6073;53.230;10.444;2023-01-06T08:40:20;9.00;99.90
12025;DHT22;6073;53.230;10.444;2023-01-06T08:42:46;9.00;99.90
12025;DHT22;6073;53.230;10.444;2023-01-06T08:45:12;9.10;99.90
12025;DHT22;6073;53.230;10.444;2023-01-06T08:47:38;9.10;99.90
12025;DHT22;6073;53.230;10.444;2023-01-06T08:50:03;9.10;99.90
12025;DHT22;6073;53.230;10.444;2023-01-06T08:52:30;9.20;99.90
12025;DHT22;6073;53.230;10.444;2023-01-06T08:54:55;9.20;99.90
12025;DHT22;6073;53.230;10.444;2023-01-06T08:57:21;9.20;99.90
12025;DHT22;6073;53.230;10.444;2023-01-06T08:59:47;9.20;99.90
12025;DHT22;6073;53.230;10.444;2023-01-06T09:02:12;9.10;99.90
12025;DHT22;6073;53.230;10.444;2023-01-06T09:04:38;9.20;99.90
12025;DHT22;6073;53.230;10.444;2023-01-06T09:07:04;9.20;99.90
12025;DHT22;6073;53.230;10.444;2023-01-06T09:09:29;9.20;99.90
12025;DHT22;6073;53.230;10.444;2023-01-06T09:11:55;9.20;99.90
12025;DHT22;6073;53.230;10.444;2023-01-06T09:14:21;9.20;99.90
12025;DHT22;6073;53.230;10.444;2023-01-06T09:16:47;9.20;99.90
12025;DHT22;6073;53.230;10.444;2023-01-06T09:19:13;9.40;99.90
12025;DHT22;6073;53.230;10.444;2023-01-06T09:21:41;9.40;99.90
12025;DHT22;6073;53.230;10.444;2023-01-06T09:24:12;9.40;99.90
12025;DHT22;6073;53.230;10.444;2023-01-06T09:26:38;9.50;99.90
12025;DHT22;6073;53.230;10.444;2023-01-06T09:29:03;9.50;99.90
12025;DHT22;6073;53.230;10.444;2023-01-06T09:31:29;9.50;99.90
12025;DHT22;6073;53.230;10.444;2023-01-06T09:33:54;9.50;99.90
12025;DHT22;6073;53.230;10.444;2023-01-06T09:36:20;9.50;99.90
12025;DHT22;6073;53.230;10.444;2023-01-06T09:38:46;9.60;99.90
12025;DHT22;6073;53.230;10.444;2023-01-06T09:44:13;9.60;99.90
12025;DHT22;6073;53.230;10.444;2023-01-06T09:46:44;9.60;99.90
12025;DHT22;6073;53.230;10.444;2023-01-06T09:49:38;9.60;99.90
12025;DHT22;6073;53.230;10.444;2023-01-06T09:52:25;9.60;99.90
12025;DHT22;6073;53.230;10.444;2023-01-06T09:55:17;9.60;99.90
12025;DHT22;6073;53.230;10.444;2023-01-06T09:57:51;9.60;99.90
12025;DHT22;6073;53.230;10.444;2023-01-06T10:00:37;9.50;99.90
12025;DHT22;6073;53.230;10.444;2023-01-06T10:03:05;9.50;99.90
12025;DHT22;6073;53.230;10.444;2023-01-06T10:05:59;9.50;99.90
12025;DHT22;6073;53.230;10.444;2023-01-06T10:11:14;9.40;99.90
12025;DHT22;6073;53.230;10.444;2023-01-06T10:13:54;9.40;99.90
12025;DHT22;6073;53.230;10.444;2023-01-06T10:16:56;9.40;99.90
12025;DHT22;6073;53.230;10.444;2023-01-06T10:24:35;9.40;99.90
12025;DHT22;6073;53.230;10.444;2023-01-06T10:27:34;9.50;99.90
12025;DHT22;6073;53.230;10.444;2023-01-06T10:30:00;9.50;99.90
12025;DHT22;6073;53.230;10.444;2023-01-06T10:32:30;9.50;99.90
12025;DHT22;6073;53.230;10.444;2023-01-06T10:34:57;9.40;99.90
12025;DHT22;6073;53.230;10.444;2023-01-06T10:37:31;9.50;99.90
12025;DHT22;6073;53.230;10.444;2023-01-06T10:40:25;9.50;99.90
12025;DHT22;6073;53.230;10.444;2023-01-06T10:43:05;9.60;99.90
12025;DHT22;6073;53.230;10.444;2023-01-06T10:45:42;9.70;99.90
12025;DHT22;6073;53.230;10.444;2023-01-06T10:48:28;9.60;99.90
12025;DHT22;6073;53.230;10.444;2023-01-06T10:50:55;9.60;99.90
12025;DHT22;6073;53.230;10.444;2023-01-06T10:53:21;9.60;99.90
12025;DHT22;6073;53.230;10.444;2023-01-06T10:55:53;9.70;99.90
12025;DHT22;6073;53.230;10.444;2023-01-06T10:58:54;9.80;99.90
12025;DHT22;6073;53.230;10.444;2023-01-06T11:01:25;9.80;99.90
12025;DHT22;6073;53.230;10.444;2023-01-06T11:04:11;9.70;99.90
12025;DHT22;6073;53.230;10.444;2023-01-06T11:06:48;9.80;99.90
12025;DHT22;6073;53.230;10.444;2023-01-06T11:09:43;9.80;99.90
12025;DHT22;6073;53.230;10.444;2023-01-06T11:12:13;9.80;99.90
12025;DHT22;6073;53.230;10.444;2023-01-06T11:14:40;9.90;99.90
12025;DHT22;6073;53.230;10.444;2023-01-06T11:17:09;10.00;99.90
12025;DHT22;6073;53.230;10.444;2023-01-06T11:19:41;10.00;99.90
12025;DHT22;6073;53.230;10.444;2023-01-06T11:22:30;10.10;99.90
12025;DHT22;6073;53.230;10.444;2023-01-06T11:24:58;10.10;99.90
12025;DHT22;6073;53.230;10.444;2023-01-06T11:27:23;10.10;99.90
12025;DHT22;6073;53.230;10.444;2023-01-06T11:29:49;10.10;99.90
12025;DHT22;6073;53.230;10.444;2023-01-06T11:32:19;10.10;99.90
12025;DHT22;6073;53.230;10.444;2023-01-06T11:37:36;10.10;99.90
12025;DHT22;6073;53.230;10.444;2023-01-06T11:40:18;10.10;99.90
12025;DHT22;6073;53.230;10.444;2023-01-06T11:42:50;10.10;99.90
12025;DHT22;6073;53.230;10.444;2023-01-06T11:45:35;10.10;99.90
12025;DHT22;6073;53.230;10.444;2023-01-06T11:48:06;10.10;99.90
12025;DHT22;6073;53.230;10.444;2023-01-06T11:50:36;10.10;99.90
12025;DHT22;6073;53.230;10.444;2023-01-06T11:53:05;10.20;99.90
12025;DHT22;6073;53.230;10.444;2023-01-06T11:55:39;10.10;99.90
12025;DHT22;6073;53.230;10.444;2023-01-06T11:58:09;10.10;99.90
12025;DHT22;6073;53.230;10.444;2023-01-06T12:03:30;10.00;99.90
12025;DHT22;6073;53.230;10.444;2023-01-06T12:06:04;10.00;99.90
12025;DHT22;6073;53.230;10.444;2023-01-06T12:08:50;10.00;99.90
12025;DHT22;6073;53.230;10.444;2023-01-06T12:11:49;10.00;99.90
12025;DHT22;6073;53.230;10.444;2023-01-06T12:14:19;10.00;99.90
12025;DHT22;6073;53.230;10.444;2023-01-06T12:19:47;9.90;99.90
12025;DHT22;6073;53.230;10.444;2023-01-06T12:24:57;9.80;99.90
12025;DHT22;6073;53.230;10.444;2023-01-06T12:27:32;9.70;99.90
12025;DHT22;6073;53.230;10.444;2023-01-06T12:30:01;9.70;99.90
12025;DHT22;6073;53.230;10.444;2023-01-06T12:32:41;9.60;99.90
12025;DHT22;6073;53.230;10.444;2023-01-06T12:35:17;9.70;99.90
12025;DHT22;6073;53.230;10.444;2023-01-06T12:37:47;9.70;99.90
12025;DHT22;6073;53.230;10.444;2023-01-06T12:40:22;9.70;99.90
12025;DHT22;6073;53.230;10.444;2023-01-06T12:51:20;9.80;99.90
12025;DHT22;6073;53.230;10.444;2023-01-06T12:54:01;9.80;99.90
12025;DHT22;6073;53.230;10.444;2023-01-06T13:05:53;10.00;99.90
12025;DHT22;6073;53.230;10.444;2023-01-06T13:11:22;9.80;99.90
12025;DHT22;6073;53.230;10.444;2023-01-06T13:21:50;9.40;99.90
12025;DHT22;6073;53.230;10.444;2023-01-06T13:24:45;9.30;99.90
12025;DHT22;6073;53.230;10.444;2023-01-06T13:27:46;9.40;99.90
12025;DHT22;6073;53.230;10.444;2023-01-06T13:36:57;9.30;99.90
12025;DHT22;6073;53.230;10.444;2023-01-06T13:39:41;9.40;99.90
12025;DHT22;6073;53.230;10.444;2023-01-06T13:42:21;9.40;99.90
12025;DHT22;6073;53.230;10.444;2023-01-06T13:44:53;9.40;99.90
12025;DHT22;6073;53.230;10.444;2023-01-06T13:47:23;9.40;99.90
12025;DHT22;6073;53.230;10.444;2023-01-06T13:49:52;9.50;99.90
12025;DHT22;6073;53.230;10.444;2023-01-06T13:52:28;9.50;99.90
12025;DHT22;6073;53.230;10.444;2023-01-06T13:55:02;9.50;99.90
12025;DHT22;6073;53.230;10.444;2023-01-06T13:57:41;9.50;99.90
12025;DHT22;6073;53.230;10.444;2023-01-06T14:00:24;9.50;99.90
12025;DHT22;6073;53.230;10.444;2023-01-06T14:03:00;9.60;99.90
12025;DHT22;6073;53.230;10.444;2023-01-06T14:08:21;9.70;99.90
12025;DHT22;6073;53.230;10.444;2023-01-06T14:10:57;9.60;99.90
12025;DHT22;6073;53.230;10.444;2023-01-06T14:13:53;9.50;99.90
12025;DHT22;6073;53.230;10.444;2023-01-06T14:16:21;9.40;99.90
12025;DHT22;6073;53.230;10.444;2023-01-06T14:22:16;9.30;99.90
12025;DHT22;6073;53.230;10.444;2023-01-06T14:24:50;9.20;99.90
12025;DHT22;6073;53.230;10.444;2023-01-06T14:30:31;9.20;99.90
12025;DHT22;6073;53.230;10.444;2023-01-06T14:35:35;9.00;99.90
12025;DHT22;6073;53.230;10.444;2023-01-06T14:38:05;8.90;99.90
12025;DHT22;6073;53.230;10.444;2023-01-06T14:41:03;8.90;99.90
12025;DHT22;6073;53.230;10.444;2023-01-06T14:43:40;8.80;99.90
12025;DHT22;6073;53.230;10.444;2023-01-06T14:46:19;8.90;99.90
12025;DHT22;6073;53.230;10.444;2023-01-06T14:48:51;8.90;99.90
12025;DHT22;6073;53.230;10.444;2023-01-06T14:51:19;8.80;99.90
12025;DHT22;6073;53.230;10.444;2023-01-06T14:53:54;8.70;99.90
12025;DHT22;6073;53.230;10.444;2023-01-06T14:56:23;8.60;99.90
12025;DHT22;6073;53.230;10.444;2023-01-06T14:58:49;8.40;99.90
12025;DHT22;6073;53.230;10.444;2023-01-06T15:01:24;8.20;99.90
12025;DHT22;6073;53.230;10.444;2023-01-06T15:03:56;8.10;99.90
12025;DHT22;6073;53.230;10.444;2023-01-06T15:06:24;8.00;99.90
12025;DHT22;6073;53.230;10.444;2023-01-06T15:08:50;7.90;99.90
12025;DHT22;6073;53.230;10.444;2023-01-06T15:11:26;7.80;99.90
12025;DHT22;6073;53.230;10.444;2023-01-06T15:13:52;7.70;99.90
12025;DHT22;6073;53.230;10.444;2023-01-06T15:16:33;7.70;99.90
12025;DHT22;6073;53.230;10.444;2023-01-06T15:19:00;7.50;99.90
12025;DHT22;6073;53.230;10.444;2023-01-06T15:21:27;7.50;99.90
12025;DHT22;6073;53.230;10.444;2023-01-06T15:23:53;7.40;99.90
12025;DHT22;6073;53.230;10.444;2023-01-06T15:26:27;7.40;99.90
12025;DHT22;6073;53.230;10.444;2023-01-06T15:29:01;7.50;99.90
12025;DHT22;6073;53.230;10.444;2023-01-06T15:31:32;7.40;99.90
12025;DHT22;6073;53.230;10.444;2023-01-06T15:34:01;7.30;99.90
12025;DHT22;6073;53.230;10.444;2023-01-06T15:36:28;7.30;99.90
12025;DHT22;6073;53.230;10.444;2023-01-06T15:38:56;7.30;99.90
12025;DHT22;6073;53.230;10.444;2023-01-06T15:41:24;7.30;99.90
12025;DHT22;6073;53.230;10.444;2023-01-06T15:44:01;7.30;99.90
12025;DHT22;6073;53.230;10.444;2023-01-06T15:46:38;7.30;99.90
12025;DHT22;6073;53.230;10.444;2023-01-06T15:49:05;7.40;99.90
12025;DHT22;6073;53.230;10.444;2023-01-06T15:51:31;7.40;99.90
12025;DHT22;6073;53.230;10.444;2023-01-06T15:53:58;7.40;99.90
12025;DHT22;6073;53.230;10.444;2023-01-06T15:56:26;7.40;99.90
12025;DHT22;6073;53.230;10.444;2023-01-06T15:58:54;7.40;99.90
12025;DHT22;6073;53.230;10.444;2023-01-06T16:01:21;7.30;99.90
12025;DHT22;6073;53.230;10.444;2023-01-06T16:03:53;7.20;99.90
12025;DHT22;6073;53.230;10.444;2023-01-06T16:06:31;7.10;99.90
12025;DHT22;6073;53.230;10.444;2023-01-06T16:09:24;7.10;99.90
12025;DHT22;6073;53.230;10.444;2023-01-06T16:12:12;7.00;99.90
12025;DHT22;6073;53.230;10.444;2023-01-06T16:14:38;7.10;99.90
12025;DHT22;6073;53.230;10.444;2023-01-06T16:17:09;7.30;99.90
12025;DHT22;6073;53.230;10.444;2023-01-06T16:19:50;7.20;99.90
12025;DHT22;6073;53.230;10.444;2023-01-06T16:22:53;7.10;99.90
12025;DHT22;6073;53.230;10.444;2023-01-06T16:25:31;7.10;99.90
12025;DHT22;6073;53.230;10.444;2023-01-06T16:28:03;7.10;99.90
12025;DHT22;6073;53.230;10.444;2023-01-06T16:30:33;7.10;99.90
12025;DHT22;6073;53.230;10.444;2023-01-06T16:33:01;7.20;99.90
12025;DHT22;6073;53.230;10.444;2023-01-06T16:35:29;7.20;99.90
12025;DHT22;6073;53.230;10.444;2023-01-06T16:37:55;7.20;99.90
12025;DHT22;6073;53.230;10.444;2023-01-06T16:40:23;7.10;99.90
12025;DHT22;6073;53.230;10.444;2023-01-06T16:43:25;7.10;99.90
12025;DHT22;6073;53.230;10.444;2023-01-06T16:45:51;7.00;99.90
12025;DHT22;6073;53.230;10.444;2023-01-06T16:48:18;6.90;99.90
12025;DHT22;6073;53.230;10.444;2023-01-06T16:50:45;6.80;99.90
12025;DHT22;6073;53.230;10.444;2023-01-06T16:53:16;6.80;99.90
12025;DHT22;6073;53.230;10.444;2023-01-06T16:55:53;6.80;99.90
12025;DHT22;6073;53.230;10.444;2023-01-06T16:58:21;6.90;99.90
12025;DHT22;6073;53.230;10.444;2023-01-06T17:00:50;6.80;99.90
12025;DHT22;6073;53.230;10.444;2023-01-06T17:03:21;6.70;99.90
12025;DHT22;6073;53.230;10.444;2023-01-06T17:05:48;6.60;99.90
12025;DHT22;6073;53.230;10.444;2023-01-06T17:08:16;6.60;99.90
12025;DHT22;6073;53.230;10.444;2023-01-06T17:10:42;6.50;99.90
12025;DHT22;6073;53.230;10.444;2023-01-06T17:13:13;6.40;99.90
12025;DHT22;6073;53.230;10.444;2023-01-06T17:16:11;6.40;99.90
12025;DHT22;6073;53.230;10.444;2023-01-06T17:18:52;6.40;99.90
12025;DHT22;6073;53.230;10.444;2023-01-06T17:21:32;6.40;99.90
12025;DHT22;6073;53.230;10.444;2023-01-06T17:24:05;6.30;99.90
12025;DHT22;6073;53.230;10.444;2023-01-06T17:26:34;6.30;99.90
12025;DHT22;6073;53.230;10.444;2023-01-06T17:29:00;6.40;99.90
12025;DHT22;6073;53.230;10.444;2023-01-06T17:31:35;6.40;99.90
12025;DHT22;6073;53.230;10.444;2023-01-06T17:34:15;6.30;99.90
12025;DHT22;6073;53.230;10.444;2023-01-06T17:36:43;6.30;99.90
12025;DHT22;6073;53.230;10.444;2023-01-06T17:39:25;6.20;99.90
12025;DHT22;6073;53.230;10.444;2023-01-06T17:42:00;6.10;99.90
12025;DHT22;6073;53.230;10.444;2023-01-06T17:44:34;6.10;99.90
12025;DHT22;6073;53.230;10.444;2023-01-06T17:47:04;6.00;99.90
12025;DHT22;6073;53.230;10.444;2023-01-06T17:49:33;6.00;99.90
12025;DHT22;6073;53.230;10.444;2023-01-06T17:52:22;6.00;99.90
12025;DHT22;6073;53.230;10.444;2023-01-06T17:54:53;6.10;99.90
12025;DHT22;6073;53.230;10.444;2023-01-06T17:57:40;6.10;99.90
12025;DHT22;6073;53.230;10.444;2023-01-06T18:02:50;6.10;99.90
12025;DHT22;6073;53.230;10.444;2023-01-06T18:08:11;5.90;99.90